createdAt,value
2022-08-22T00:01:07.801Z,1.70
2022-08-22T00:06:42.547Z,1.80
2022-08-22T00:12:22.473Z,1.50
2022-08-22T00:17:55.199Z,1.30
2022-08-22T00:23:27.370Z,1.40
2022-08-22T00:28:37.034Z,1.30
2022-08-22T00:33:51.304Z,1.30
2022-08-22T00:39:06.396Z,1.50
2022-08-22T00:44:21.323Z,1.40
2022-08-22T00:49:44.491Z,1.50
2022-08-22T00:55:23.976Z,1.60
2022-08-22T01:00:36.665Z,2.00
2022-08-22T01:06:07.512Z,1.80
2022-08-22T01:11:35.135Z,1.90
2022-08-22T01:16:51.710Z,1.70
2022-08-22T01:22:06.430Z,1.60
2022-08-22T01:27:31.418Z,1.50
2022-08-22T01:33:20.835Z,2.30
2022-08-22T01:38:41.638Z,2.00
2022-08-22T01:44:16.673Z,1.90
2022-08-22T01:49:35.774Z,1.80
2022-08-22T01:54:56.039Z,1.70
2022-08-22T02:00:07.356Z,1.70
2022-08-22T02:05:17.053Z,1.60
2022-08-22T02:10:26.467Z,2.20
2022-08-22T02:15:41.267Z,1.90
2022-08-22T02:20:52.835Z,2.00
2022-08-22T02:26:13.111Z,2.70
2022-08-22T02:31:25.734Z,1.80
2022-08-22T02:36:44.364Z,1.70
2022-08-22T02:41:56.461Z,2.00
2022-08-22T02:47:11.529Z,1.90
2022-08-22T02:52:33.261Z,2.00
2022-08-22T02:58:04.824Z,2.20
2022-08-22T03:03:16.768Z,1.80
2022-08-22T03:08:33.179Z,1.90
2022-08-22T03:13:49.709Z,2.00
2022-08-22T03:19:31.747Z,1.80
2022-08-22T03:25:18.996Z,1.70
2022-08-22T03:30:34.082Z,1.80
2022-08-22T03:35:49.668Z,2.00
2022-08-22T03:41:24.074Z,1.70
2022-08-22T03:46:51.170Z,1.70
2022-08-22T03:52:11.947Z,1.50
2022-08-22T03:57:36.404Z,1.80
2022-08-22T04:03:00.429Z,1.80
2022-08-22T04:08:25.959Z,1.80
2022-08-22T04:19:08.868Z,1.70
2022-08-22T04:24:40.737Z,1.80
2022-08-22T04:29:46.472Z,1.90
2022-08-22T04:34:56.034Z,1.80
2022-08-22T04:39:58.660Z,1.70
2022-08-22T04:45:37.483Z,1.90
2022-08-22T04:50:49.698Z,2.00
2022-08-22T04:55:55.035Z,2.00
2022-08-22T05:01:09.691Z,2.00
2022-08-22T05:06:15.942Z,1.90
2022-08-22T05:16:30.435Z,2.00
2022-08-22T05:21:37.626Z,1.90
2022-08-22T05:26:50.909Z,1.70
2022-08-22T05:32:02.681Z,1.90
2022-08-22T05:37:05.307Z,1.80
2022-08-22T05:42:16.072Z,2.00
2022-08-22T05:47:36.783Z,2.60
2022-08-22T05:53:12.984Z,2.10
2022-08-22T05:58:56.179Z,2.20
2022-08-22T06:04:13.748Z,2.40
2022-08-22T06:09:35.422Z,2.40
2022-08-22T06:15:02.699Z,1.90
2022-08-22T06:20:21.755Z,2.20
2022-08-22T06:25:36.412Z,2.40
2022-08-22T06:30:40.094Z,2.20
2022-08-22T06:36:28.531Z,2.10
2022-08-22T06:41:35.826Z,2.30
2022-08-22T06:46:39.338Z,2.10
2022-08-22T06:51:43.923Z,2.70
2022-08-22T06:56:50.070Z,2.30
2022-08-22T07:07:07.329Z,2.00
2022-08-22T07:12:20.212Z,2.30
2022-08-22T07:17:30.029Z,2.20
2022-08-22T07:22:37.488Z,2.10
2022-08-22T07:27:49.257Z,2.10
2022-08-22T07:32:51.866Z,2.30
2022-08-22T07:37:58.959Z,2.10
2022-08-22T07:43:20.039Z,1.90
2022-08-22T07:49:08.284Z,2.00
2022-08-22T07:54:17.131Z,2.40
2022-08-22T07:59:22.274Z,2.40
2022-08-22T08:04:30.194Z,2.30
2022-08-22T08:09:38.456Z,2.10
2022-08-22T08:14:44.520Z,2.20
2022-08-22T08:24:54.133Z,2.90
2022-08-22T08:30:02.459Z,3.10
2022-08-22T08:35:19.200Z,2.80
2022-08-22T08:40:30.798Z,2.80
2022-08-22T08:45:48.230Z,2.50
2022-08-22T08:51:16.188Z,2.10
2022-08-22T08:56:38.080Z,2.70
2022-08-22T09:01:53.388Z,2.30
2022-08-22T09:07:07.202Z,2.20
2022-08-22T09:12:56.390Z,2.60
2022-08-22T09:18:18.647Z,2.60
2022-08-22T09:24:07.036Z,2.70
2022-08-22T09:29:57.022Z,2.10
2022-08-22T09:35:23.116Z,2.50
2022-08-22T09:40:45.832Z,2.30
2022-08-22T09:45:52.415Z,1.90
2022-08-22T09:51:33.152Z,2.10
2022-08-22T09:56:39.600Z,2.30
2022-08-22T10:01:48.334Z,2.10
2022-08-22T10:07:01.748Z,2.10
2022-08-22T10:12:12.759Z,2.10
2022-08-22T10:17:24.070Z,2.30
2022-08-22T10:22:40.601Z,1.90
2022-08-22T10:27:43.217Z,2.30
2022-08-22T10:33:29.392Z,2.10
2022-08-22T10:38:53.997Z,2.10
2022-08-22T10:44:01.183Z,2.50
2022-08-22T10:49:28.279Z,2.30
2022-08-22T11:00:11.868Z,2.50
2022-08-22T11:05:29.989Z,2.60
2022-08-22T11:11:04.653Z,2.30
2022-08-22T11:16:16.421Z,2.60
2022-08-22T11:21:48.740Z,2.20
2022-08-22T11:27:17.634Z,2.40
2022-08-22T11:32:29.518Z,2.20
2022-08-22T11:37:45.028Z,2.10
2022-08-22T11:48:10.941Z,2.30
2022-08-22T11:53:27.291Z,2.10
2022-08-22T11:58:52.428Z,2.20
2022-08-22T12:04:09.882Z,2.10
2022-08-22T12:09:23.088Z,2.50
2022-08-22T12:15:01.210Z,2.20
2022-08-22T12:20:17.210Z,1.90
2022-08-22T12:25:44.514Z,2.20
2022-08-22T12:31:17.016Z,2.20
2022-08-22T12:36:35.178Z,2.50
2022-08-22T12:41:56.530Z,2.20
2022-08-22T12:47:32.020Z,2.40
2022-08-22T12:52:38.046Z,2.20
2022-08-22T12:58:02.100Z,2.10
2022-08-22T13:03:23.225Z,2.90
2022-08-22T13:08:41.228Z,2.50
2022-08-22T13:13:56.196Z,2.50
2022-08-22T13:19:13.659Z,1.90
2022-08-22T13:24:38.805Z,1.90
2022-08-22T13:29:57.073Z,2.30
2022-08-22T13:35:01.591Z,2.40
2022-08-22T13:40:10.200Z,2.20
2022-08-22T13:45:26.013Z,2.20
2022-08-22T13:50:37.524Z,2.40
2022-08-22T13:56:05.815Z,2.40
2022-08-22T14:01:11.625Z,2.30
2022-08-22T14:06:36.835Z,2.50
2022-08-22T14:11:40.923Z,2.40
2022-08-22T14:16:54.061Z,2.40
2022-08-22T14:22:22.045Z,2.70
2022-08-22T14:27:34.934Z,2.60
2022-08-22T14:32:42.482Z,2.60
2022-08-22T14:37:52.196Z,2.20
2022-08-22T14:43:06.431Z,2.30
2022-08-22T14:48:31.723Z,2.70
2022-08-22T14:53:38.987Z,2.40
2022-08-22T14:59:02.938Z,2.30
2022-08-22T15:04:11.379Z,2.70
2022-08-22T15:09:36.821Z,2.70
2022-08-22T15:14:52.443Z,2.40
2022-08-22T15:20:22.775Z,2.50
2022-08-22T15:25:36.979Z,2.10
2022-08-22T15:31:03.825Z,2.50
2022-08-22T15:36:24.999Z,2.20
2022-08-22T15:41:37.032Z,2.00
2022-08-22T15:46:44.742Z,2.00
2022-08-22T15:52:13.376Z,2.10
2022-08-22T15:57:18.905Z,1.90
2022-08-22T16:03:07.641Z,1.90
2022-08-22T16:08:18.626Z,1.90
2022-08-22T16:13:27.296Z,1.80
2022-08-22T16:18:45.165Z,1.80
2022-08-22T16:23:54.263Z,2.00
2022-08-22T16:29:17.534Z,1.90
2022-08-22T16:34:38.370Z,1.90
2022-08-22T16:40:03.575Z,1.80
2022-08-22T16:45:17.757Z,1.90
2022-08-22T16:50:28.022Z,2.20
2022-08-22T16:55:30.881Z,1.70
2022-08-22T17:00:36.530Z,1.70
2022-08-22T17:06:05.178Z,1.90
2022-08-22T17:11:30.128Z,2.10
2022-08-22T17:16:52.058Z,1.90
2022-08-22T17:22:02.137Z,2.10
2022-08-22T17:27:23.368Z,2.00
2022-08-22T17:33:00.265Z,2.10
2022-08-22T17:38:31.898Z,2.10
2022-08-22T17:43:52.158Z,2.10
2022-08-22T17:49:32.219Z,2.00
2022-08-22T17:55:00.497Z,2.20
2022-08-22T18:00:17.347Z,2.00
2022-08-22T18:05:28.017Z,2.10
2022-08-22T18:10:40.895Z,2.10
2022-08-22T18:16:04.030Z,2.20
2022-08-22T18:21:15.289Z,2.40
2022-08-22T18:26:17.928Z,2.00
2022-08-22T18:31:45.377Z,2.30
2022-08-22T18:37:01.152Z,2.00
2022-08-22T18:47:19.252Z,2.40
2022-08-22T18:52:42.280Z,2.30
2022-08-22T18:57:58.335Z,2.30
2022-08-22T19:03:43.155Z,2.40
2022-08-22T19:08:53.407Z,2.50
2022-08-22T19:14:17.913Z,2.60
2022-08-22T19:19:57.146Z,2.40
2022-08-22T19:25:09.277Z,2.30
2022-08-22T19:30:33.910Z,2.60
2022-08-22T19:35:51.665Z,2.90
2022-08-22T19:40:58.488Z,2.70
2022-08-22T19:46:05.629Z,2.90
2022-08-22T19:51:28.898Z,2.50
2022-08-22T19:56:50.694Z,2.70
2022-08-22T20:01:58.178Z,2.60
2022-08-22T20:07:21.500Z,2.60
2022-08-22T20:12:30.095Z,2.90
2022-08-22T20:17:41.314Z,2.70
2022-08-22T20:22:55.374Z,2.60
2022-08-22T20:28:05.197Z,2.90
2022-08-22T20:33:13.937Z,3.00
2022-08-22T20:38:22.327Z,2.80
2022-08-22T20:43:35.768Z,2.80
2022-08-22T20:48:42.946Z,2.60
2022-08-22T20:53:53.059Z,3.00
2022-08-22T20:59:00.512Z,3.10
2022-08-22T21:04:04.907Z,3.10
2022-08-22T21:09:52.499Z,3.40
2022-08-22T21:14:55.220Z,3.40
2022-08-22T21:19:58.457Z,3.60
2022-08-22T21:25:01.490Z,3.30
2022-08-22T21:30:08.513Z,3.40
2022-08-22T21:35:40.733Z,3.40
2022-08-22T21:40:43.468Z,3.80
2022-08-22T21:45:47.027Z,4.20
2022-08-22T21:50:49.847Z,3.60
2022-08-22T21:56:11.980Z,3.80
2022-08-22T22:01:31.372Z,2.80
2022-08-22T22:06:34.280Z,3.20
2022-08-22T22:11:39.387Z,3.60
2022-08-22T22:16:42.093Z,3.40
2022-08-22T22:21:44.832Z,3.30
2022-08-22T22:26:47.714Z,3.30
2022-08-22T22:31:50.612Z,3.20
2022-08-22T22:36:54.398Z,3.30
2022-08-22T22:41:57.077Z,3.40
2022-08-22T22:47:04.936Z,3.30
2022-08-22T22:52:07.646Z,3.20
2022-08-22T22:57:16.209Z,3.20
2022-08-22T23:02:28.265Z,3.30
2022-08-22T23:07:33.854Z,3.50
2022-08-22T23:12:38.100Z,3.00
2022-08-22T23:17:42.425Z,3.10
2022-08-22T23:22:46.177Z,3.30
2022-08-22T23:27:52.481Z,3.30
2022-08-22T23:32:55.897Z,3.30
2022-08-22T23:37:58.802Z,3.60
2022-08-22T23:43:01.808Z,3.40
2022-08-22T23:48:04.542Z,3.90
2022-08-22T23:53:07.225Z,3.20
2022-08-22T23:58:10.009Z,3.70
